sensor_id;sensor_type;location;lat;lon;timestamp;P1;durP1;ratioP1;P2;durP2;ratioP2
17347;SDS011;8791;50.876;4.342;2022-08-19T00:01:27;26.48;;;20.45;;
17347;SDS011;8791;50.876;4.342;2022-08-19T00:03:55;22.90;;;19.00;;
17347;SDS011;8791;50.876;4.342;2022-08-19T00:06:22;24.52;;;19.45;;
17347;SDS011;8791;50.876;4.342;2022-08-19T00:08:50;23.02;;;19.08;;
17347;SDS011;8791;50.876;4.342;2022-08-19T00:11:17;23.20;;;19.48;;
17347;SDS011;8791;50.876;4.342;2022-08-19T00:13:45;22.60;;;19.15;;
17347;SDS011;8791;50.876;4.342;2022-08-19T00:16:13;29.35;;;21.15;;
17347;SDS011;8791;50.876;4.342;2022-08-19T00:18:40;32.88;;;21.92;;
17347;SDS011;8791;50.876;4.342;2022-08-19T00:21:08;36.95;;;25.25;;
17347;SDS011;8791;50.876;4.342;2022-08-19T00:23:35;35.22;;;24.52;;
17347;SDS011;8791;50.876;4.342;2022-08-19T00:26:04;33.70;;;23.63;;
17347;SDS011;8791;50.876;4.342;2022-08-19T00:28:31;39.22;;;26.20;;
17347;SDS011;8791;50.876;4.342;2022-08-19T00:31:00;47.75;;;30.48;;
17347;SDS011;8791;50.876;4.342;2022-08-19T00:33:28;43.17;;;27.55;;
17347;SDS011;8791;50.876;4.342;2022-08-19T00:35:57;43.55;;;28.58;;
17347;SDS011;8791;50.876;4.342;2022-08-19T00:38:24;43.92;;;29.20;;
17347;SDS011;8791;50.876;4.342;2022-08-19T00:40:51;53.30;;;31.92;;
17347;SDS011;8791;50.876;4.342;2022-08-19T00:43:20;51.75;;;33.13;;
17347;SDS011;8791;50.876;4.342;2022-08-19T00:45:49;52.85;;;33.92;;
17347;SDS011;8791;50.876;4.342;2022-08-19T00:48:17;59.60;;;35.47;;
17347;SDS011;8791;50.876;4.342;2022-08-19T00:50:44;64.82;;;36.45;;
17347;SDS011;8791;50.876;4.342;2022-08-19T00:53:14;64.38;;;37.10;;
17347;SDS011;8791;50.876;4.342;2022-08-19T00:55:45;63.45;;;37.50;;
17347;SDS011;8791;50.876;4.342;2022-08-19T00:58:15;58.35;;;36.55;;
17347;SDS011;8791;50.876;4.342;2022-08-19T01:00:46;69.97;;;39.70;;
17347;SDS011;8791;50.876;4.342;2022-08-19T01:03:14;63.90;;;37.65;;
17347;SDS011;8791;50.876;4.342;2022-08-19T01:05:44;61.22;;;37.42;;
17347;SDS011;8791;50.876;4.342;2022-08-19T01:08:13;65.85;;;38.53;;
17347;SDS011;8791;50.876;4.342;2022-08-19T01:10:43;63.15;;;38.45;;
17347;SDS011;8791;50.876;4.342;2022-08-19T01:13:14;60.28;;;37.10;;
17347;SDS011;8791;50.876;4.342;2022-08-19T01:15:42;64.55;;;37.75;;
17347;SDS011;8791;50.876;4.342;2022-08-19T01:18:13;63.63;;;39.80;;
17347;SDS011;8791;50.876;4.342;2022-08-19T01:20:42;65.00;;;38.85;;
17347;SDS011;8791;50.876;4.342;2022-08-19T01:23:12;71.65;;;38.97;;
17347;SDS011;8791;50.876;4.342;2022-08-19T01:25:41;61.17;;;36.47;;
17347;SDS011;8791;50.876;4.342;2022-08-19T01:28:15;59.08;;;35.95;;
17347;SDS011;8791;50.876;4.342;2022-08-19T01:30:45;61.80;;;38.42;;
17347;SDS011;8791;50.876;4.342;2022-08-19T01:33:12;57.72;;;36.85;;
17347;SDS011;8791;50.876;4.342;2022-08-19T01:35:39;56.80;;;36.22;;
17347;SDS011;8791;50.876;4.342;2022-08-19T01:38:08;58.38;;;35.67;;
17347;SDS011;8791;50.876;4.342;2022-08-19T01:40:46;54.55;;;34.53;;
17347;SDS011;8791;50.876;4.342;2022-08-19T01:43:13;53.30;;;34.50;;
17347;SDS011;8791;50.876;4.342;2022-08-19T01:45:40;51.28;;;32.38;;
17347;SDS011;8791;50.876;4.342;2022-08-19T01:48:07;45.30;;;31.17;;
17347;SDS011;8791;50.876;4.342;2022-08-19T01:50:35;48.78;;;31.23;;
17347;SDS011;8791;50.876;4.342;2022-08-19T01:53:02;44.00;;;30.52;;
17347;SDS011;8791;50.876;4.342;2022-08-19T01:55:31;47.95;;;29.95;;
17347;SDS011;8791;50.876;4.342;2022-08-19T01:58:01;45.67;;;30.10;;
17347;SDS011;8791;50.876;4.342;2022-08-19T02:00:31;44.55;;;31.05;;
17347;SDS011;8791;50.876;4.342;2022-08-19T02:02:58;41.42;;;30.25;;
17347;SDS011;8791;50.876;4.342;2022-08-19T02:05:26;46.28;;;28.52;;
17347;SDS011;8791;50.876;4.342;2022-08-19T02:07:54;36.90;;;25.83;;
17347;SDS011;8791;50.876;4.342;2022-08-19T02:10:21;35.78;;;23.40;;
17347;SDS011;8791;50.876;4.342;2022-08-19T02:12:48;30.38;;;22.35;;
17347;SDS011;8791;50.876;4.342;2022-08-19T02:15:18;26.50;;;20.60;;
17347;SDS011;8791;50.876;4.342;2022-08-19T02:17:45;31.85;;;21.38;;
17347;SDS011;8791;50.876;4.342;2022-08-19T02:20:13;31.35;;;22.67;;
17347;SDS011;8791;50.876;4.342;2022-08-19T02:22:41;34.03;;;22.73;;
17347;SDS011;8791;50.876;4.342;2022-08-19T02:25:08;31.60;;;22.02;;
17347;SDS011;8791;50.876;4.342;2022-08-19T02:27:36;34.35;;;22.52;;
17347;SDS011;8791;50.876;4.342;2022-08-19T02:30:04;31.35;;;22.60;;
17347;SDS011;8791;50.876;4.342;2022-08-19T02:32:33;33.13;;;23.67;;
17347;SDS011;8791;50.876;4.342;2022-08-19T02:35:00;32.47;;;22.77;;
17347;SDS011;8791;50.876;4.342;2022-08-19T02:37:28;38.50;;;23.00;;
17347;SDS011;8791;50.876;4.342;2022-08-19T02:40:12;34.65;;;21.35;;
17347;SDS011;8791;50.876;4.342;2022-08-19T02:42:40;39.65;;;21.92;;
17347;SDS011;8791;50.876;4.342;2022-08-19T02:45:08;28.70;;;20.40;;
17347;SDS011;8791;50.876;4.342;2022-08-19T02:47:36;28.23;;;20.55;;
17347;SDS011;8791;50.876;4.342;2022-08-19T02:50:11;33.58;;;21.10;;
17347;SDS011;8791;50.876;4.342;2022-08-19T02:52:38;34.67;;;21.15;;
17347;SDS011;8791;50.876;4.342;2022-08-19T02:55:05;29.75;;;19.55;;
17347;SDS011;8791;50.876;4.342;2022-08-19T02:57:33;26.20;;;19.30;;
17347;SDS011;8791;50.876;4.342;2022-08-19T03:00:03;35.38;;;20.15;;
17347;SDS011;8791;50.876;4.342;2022-08-19T03:02:31;33.05;;;20.27;;
17347;SDS011;8791;50.876;4.342;2022-08-19T03:04:59;34.75;;;20.17;;
17347;SDS011;8791;50.876;4.342;2022-08-19T03:07:26;30.40;;;20.33;;
17347;SDS011;8791;50.876;4.342;2022-08-19T03:09:53;36.97;;;20.85;;
17347;SDS011;8791;50.876;4.342;2022-08-19T03:12:20;30.95;;;20.55;;
17347;SDS011;8791;50.876;4.342;2022-08-19T03:14:47;28.00;;;19.30;;
17347;SDS011;8791;50.876;4.342;2022-08-19T03:17:14;32.28;;;19.67;;
17347;SDS011;8791;50.876;4.342;2022-08-19T03:19:40;38.10;;;20.75;;
17347;SDS011;8791;50.876;4.342;2022-08-19T03:22:09;33.90;;;19.10;;
17347;SDS011;8791;50.876;4.342;2022-08-19T03:24:36;29.00;;;19.60;;
17347;SDS011;8791;50.876;4.342;2022-08-19T03:27:03;38.78;;;20.63;;
17347;SDS011;8791;50.876;4.342;2022-08-19T03:29:30;34.85;;;21.73;;
17347;SDS011;8791;50.876;4.342;2022-08-19T03:31:58;33.67;;;21.10;;
17347;SDS011;8791;50.876;4.342;2022-08-19T03:34:27;29.92;;;20.02;;
17347;SDS011;8791;50.876;4.342;2022-08-19T03:36:57;36.88;;;21.85;;
17347;SDS011;8791;50.876;4.342;2022-08-19T03:39:26;36.67;;;22.13;;
17347;SDS011;8791;50.876;4.342;2022-08-19T03:41:54;32.05;;;21.75;;
17347;SDS011;8791;50.876;4.342;2022-08-19T03:44:23;36.60;;;22.23;;
17347;SDS011;8791;50.876;4.342;2022-08-19T03:46:50;33.78;;;22.85;;
17347;SDS011;8791;50.876;4.342;2022-08-19T03:49:20;31.98;;;21.75;;
17347;SDS011;8791;50.876;4.342;2022-08-19T03:51:49;37.20;;;22.70;;
17347;SDS011;8791;50.876;4.342;2022-08-19T03:54:17;34.90;;;22.02;;
17347;SDS011;8791;50.876;4.342;2022-08-19T03:56:49;34.78;;;21.33;;
17347;SDS011;8791;50.876;4.342;2022-08-19T03:59:19;31.92;;;21.10;;
17347;SDS011;8791;50.876;4.342;2022-08-19T04:01:50;33.38;;;20.13;;
17347;SDS011;8791;50.876;4.342;2022-08-19T04:04:17;38.10;;;21.20;;
17347;SDS011;8791;50.876;4.342;2022-08-19T04:06:44;36.72;;;21.05;;
17347;SDS011;8791;50.876;4.342;2022-08-19T04:09:12;38.92;;;20.23;;
17347;SDS011;8791;50.876;4.342;2022-08-19T04:11:40;32.92;;;19.95;;
17347;SDS011;8791;50.876;4.342;2022-08-19T04:14:10;35.03;;;20.00;;
17347;SDS011;8791;50.876;4.342;2022-08-19T04:16:39;29.63;;;19.70;;
17347;SDS011;8791;50.876;4.342;2022-08-19T04:19:06;37.50;;;20.80;;
17347;SDS011;8791;50.876;4.342;2022-08-19T04:21:34;37.67;;;19.88;;
17347;SDS011;8791;50.876;4.342;2022-08-19T04:24:01;33.03;;;19.98;;
17347;SDS011;8791;50.876;4.342;2022-08-19T04:26:29;36.65;;;21.00;;
17347;SDS011;8791;50.876;4.342;2022-08-19T04:28:58;33.40;;;19.92;;
17347;SDS011;8791;50.876;4.342;2022-08-19T04:31:28;30.15;;;19.17;;
17347;SDS011;8791;50.876;4.342;2022-08-19T04:34:00;32.05;;;19.58;;
17347;SDS011;8791;50.876;4.342;2022-08-19T04:36:29;30.98;;;19.88;;
17347;SDS011;8791;50.876;4.342;2022-08-19T04:38:58;30.35;;;19.58;;
17347;SDS011;8791;50.876;4.342;2022-08-19T04:41:26;29.50;;;18.05;;
17347;SDS011;8791;50.876;4.342;2022-08-19T04:44:13;33.80;;;18.42;;
17347;SDS011;8791;50.876;4.342;2022-08-19T04:46:44;41.20;;;19.65;;
17347;SDS011;8791;50.876;4.342;2022-08-19T04:49:13;27.30;;;17.95;;
17347;SDS011;8791;50.876;4.342;2022-08-19T04:51:42;33.70;;;18.42;;
17347;SDS011;8791;50.876;4.342;2022-08-19T04:54:10;32.10;;;17.83;;
17347;SDS011;8791;50.876;4.342;2022-08-19T04:56:38;35.75;;;18.02;;
17347;SDS011;8791;50.876;4.342;2022-08-19T04:59:06;28.30;;;17.10;;
17347;SDS011;8791;50.876;4.342;2022-08-19T05:01:35;29.90;;;16.83;;
17347;SDS011;8791;50.876;4.342;2022-08-19T05:04:05;30.70;;;17.02;;
17347;SDS011;8791;50.876;4.342;2022-08-19T05:06:33;26.48;;;16.50;;
17347;SDS011;8791;50.876;4.342;2022-08-19T05:09:00;28.55;;;17.25;;
17347;SDS011;8791;50.876;4.342;2022-08-19T05:11:31;24.25;;;16.38;;
17347;SDS011;8791;50.876;4.342;2022-08-19T05:14:00;28.98;;;16.10;;
17347;SDS011;8791;50.876;4.342;2022-08-19T05:16:27;25.20;;;15.70;;
17347;SDS011;8791;50.876;4.342;2022-08-19T05:18:54;25.35;;;16.10;;
17347;SDS011;8791;50.876;4.342;2022-08-19T05:21:41;30.45;;;17.40;;
17347;SDS011;8791;50.876;4.342;2022-08-19T05:24:26;32.53;;;15.70;;
17347;SDS011;8791;50.876;4.342;2022-08-19T05:26:54;26.42;;;15.77;;
17347;SDS011;8791;50.876;4.342;2022-08-19T05:29:23;29.98;;;16.42;;
17347;SDS011;8791;50.876;4.342;2022-08-19T05:31:53;32.15;;;16.33;;
17347;SDS011;8791;50.876;4.342;2022-08-19T05:34:22;30.73;;;16.70;;
17347;SDS011;8791;50.876;4.342;2022-08-19T05:36:55;30.42;;;17.80;;
17347;SDS011;8791;50.876;4.342;2022-08-19T05:39:24;35.28;;;17.70;;
17347;SDS011;8791;50.876;4.342;2022-08-19T05:41:54;31.65;;;18.88;;
17347;SDS011;8791;50.876;4.342;2022-08-19T05:44:23;30.25;;;18.65;;
17347;SDS011;8791;50.876;4.342;2022-08-19T05:46:56;32.20;;;18.42;;
17347;SDS011;8791;50.876;4.342;2022-08-19T05:49:24;29.35;;;18.08;;
17347;SDS011;8791;50.876;4.342;2022-08-19T05:51:52;28.05;;;16.88;;
17347;SDS011;8791;50.876;4.342;2022-08-19T05:54:21;22.98;;;15.95;;
17347;SDS011;8791;50.876;4.342;2022-08-19T05:56:49;27.88;;;17.13;;
17347;SDS011;8791;50.876;4.342;2022-08-19T05:59:17;24.77;;;17.02;;
17347;SDS011;8791;50.876;4.342;2022-08-19T06:01:47;28.92;;;16.85;;
17347;SDS011;8791;50.876;4.342;2022-08-19T06:04:16;25.92;;;14.68;;
17347;SDS011;8791;50.876;4.342;2022-08-19T06:06:44;24.30;;;14.82;;
17347;SDS011;8791;50.876;4.342;2022-08-19T06:09:13;24.08;;;13.88;;
17347;SDS011;8791;50.876;4.342;2022-08-19T06:11:43;24.38;;;13.43;;
17347;SDS011;8791;50.876;4.342;2022-08-19T06:14:12;25.33;;;12.80;;
17347;SDS011;8791;50.876;4.342;2022-08-19T06:16:41;22.75;;;12.50;;
17347;SDS011;8791;50.876;4.342;2022-08-19T06:19:09;25.88;;;11.88;;
17347;SDS011;8791;50.876;4.342;2022-08-19T06:21:38;24.55;;;12.35;;
17347;SDS011;8791;50.876;4.342;2022-08-19T06:24:10;23.95;;;11.80;;
17347;SDS011;8791;50.876;4.342;2022-08-19T06:26:49;18.58;;;12.07;;
17347;SDS011;8791;50.876;4.342;2022-08-19T06:29:24;14.18;;;10.15;;
17347;SDS011;8791;50.876;4.342;2022-08-19T06:31:58;21.50;;;11.00;;
17347;SDS011;8791;50.876;4.342;2022-08-19T06:34:32;18.25;;;10.65;;
17347;SDS011;8791;50.876;4.342;2022-08-19T06:37:23;19.38;;;10.60;;
17347;SDS011;8791;50.876;4.342;2022-08-19T06:39:53;16.52;;;10.25;;
17347;SDS011;8791;50.876;4.342;2022-08-19T06:42:24;18.67;;;9.82;;
17347;SDS011;8791;50.876;4.342;2022-08-19T06:44:51;27.65;;;11.27;;
17347;SDS011;8791;50.876;4.342;2022-08-19T06:47:43;14.98;;;9.57;;
17347;SDS011;8791;50.876;4.342;2022-08-19T06:50:11;19.13;;;10.38;;
17347;SDS011;8791;50.876;4.342;2022-08-19T06:52:40;12.60;;;9.25;;
17347;SDS011;8791;50.876;4.342;2022-08-19T06:55:07;21.65;;;8.85;;
17347;SDS011;8791;50.876;4.342;2022-08-19T07:03:27;16.08;;;8.93;;
17347;SDS011;8791;50.876;4.342;2022-08-19T07:05:56;25.88;;;9.07;;
17347;SDS011;8791;50.876;4.342;2022-08-19T07:08:48;16.95;;;8.00;;
17347;SDS011;8791;50.876;4.342;2022-08-19T07:11:16;16.20;;;9.30;;
17347;SDS011;8791;50.876;4.342;2022-08-19T07:13:45;14.05;;;8.00;;
17347;SDS011;8791;50.876;4.342;2022-08-19T07:16:17;13.18;;;8.73;;
17347;SDS011;8791;50.876;4.342;2022-08-19T07:18:45;16.58;;;9.27;;
17347;SDS011;8791;50.876;4.342;2022-08-19T07:21:14;13.85;;;7.38;;
17347;SDS011;8791;50.876;4.342;2022-08-19T07:23:44;13.07;;;7.88;;
17347;SDS011;8791;50.876;4.342;2022-08-19T07:26:13;15.02;;;7.00;;
17347;SDS011;8791;50.876;4.342;2022-08-19T07:28:40;12.63;;;7.28;;
17347;SDS011;8791;50.876;4.342;2022-08-19T07:31:11;9.90;;;6.32;;
17347;SDS011;8791;50.876;4.342;2022-08-19T07:33:39;15.45;;;7.50;;
17347;SDS011;8791;50.876;4.342;2022-08-19T07:36:08;11.98;;;6.30;;
17347;SDS011;8791;50.876;4.342;2022-08-19T07:38:38;9.50;;;6.75;;
17347;SDS011;8791;50.876;4.342;2022-08-19T07:41:05;11.32;;;6.40;;
17347;SDS011;8791;50.876;4.342;2022-08-19T07:43:33;12.27;;;7.10;;
17347;SDS011;8791;50.876;4.342;2022-08-19T07:46:00;13.70;;;6.50;;
17347;SDS011;8791;50.876;4.342;2022-08-19T07:48:28;12.57;;;5.65;;
17347;SDS011;8791;50.876;4.342;2022-08-19T07:50:57;12.23;;;5.60;;
17347;SDS011;8791;50.876;4.342;2022-08-19T07:53:27;8.25;;;5.60;;
17347;SDS011;8791;50.876;4.342;2022-08-19T07:55:55;8.40;;;5.55;;
17347;SDS011;8791;50.876;4.342;2022-08-19T07:58:24;9.05;;;4.93;;
17347;SDS011;8791;50.876;4.342;2022-08-19T08:00:52;12.70;;;6.38;;
17347;SDS011;8791;50.876;4.342;2022-08-19T08:03:20;9.82;;;5.68;;
17347;SDS011;8791;50.876;4.342;2022-08-19T08:06:09;8.10;;;5.57;;
17347;SDS011;8791;50.876;4.342;2022-08-19T08:08:54;13.00;;;6.43;;
17347;SDS011;8791;50.876;4.342;2022-08-19T08:11:46;6.22;;;5.10;;
17347;SDS011;8791;50.876;4.342;2022-08-19T08:14:16;9.52;;;5.93;;
17347;SDS011;8791;50.876;4.342;2022-08-19T08:16:44;13.68;;;5.88;;
17347;SDS011;8791;50.876;4.342;2022-08-19T08:19:12;8.48;;;5.70;;
17347;SDS011;8791;50.876;4.342;2022-08-19T08:21:42;11.95;;;7.00;;
17347;SDS011;8791;50.876;4.342;2022-08-19T08:24:09;6.38;;;5.13;;
17347;SDS011;8791;50.876;4.342;2022-08-19T08:26:37;12.90;;;6.25;;
17347;SDS011;8791;50.876;4.342;2022-08-19T08:29:04;7.45;;;5.45;;
17347;SDS011;8791;50.876;4.342;2022-08-19T08:31:33;8.23;;;5.82;;
17347;SDS011;8791;50.876;4.342;2022-08-19T08:34:00;10.30;;;5.47;;
17347;SDS011;8791;50.876;4.342;2022-08-19T08:36:27;7.88;;;5.55;;
17347;SDS011;8791;50.876;4.342;2022-08-19T08:38:59;7.57;;;5.25;;
17347;SDS011;8791;50.876;4.342;2022-08-19T08:41:28;6.57;;;5.22;;
17347;SDS011;8791;50.876;4.342;2022-08-19T08:44:03;7.55;;;5.32;;
17347;SDS011;8791;50.876;4.342;2022-08-19T08:46:33;10.02;;;5.60;;
17347;SDS011;8791;50.876;4.342;2022-08-19T08:49:06;10.90;;;5.38;;
17347;SDS011;8791;50.876;4.342;2022-08-19T08:51:42;12.70;;;6.35;;
17347;SDS011;8791;50.876;4.342;2022-08-19T08:54:15;14.00;;;5.53;;
17347;SDS011;8791;50.876;4.342;2022-08-19T08:56:46;8.63;;;5.65;;
17347;SDS011;8791;50.876;4.342;2022-08-19T08:59:16;9.55;;;5.70;;
17347;SDS011;8791;50.876;4.342;2022-08-19T09:01:48;8.10;;;5.53;;
17347;SDS011;8791;50.876;4.342;2022-08-19T09:04:15;7.82;;;5.45;;
17347;SDS011;8791;50.876;4.342;2022-08-19T09:06:44;8.45;;;5.72;;
17347;SDS011;8791;50.876;4.342;2022-08-19T09:09:20;9.75;;;5.13;;
17347;SDS011;8791;50.876;4.342;2022-08-19T09:11:56;8.13;;;5.25;;
17347;SDS011;8791;50.876;4.342;2022-08-19T09:14:38;8.00;;;4.78;;
17347;SDS011;8791;50.876;4.342;2022-08-19T09:17:10;11.40;;;5.43;;
17347;SDS011;8791;50.876;4.342;2022-08-19T09:19:46;9.65;;;5.45;;
17347;SDS011;8791;50.876;4.342;2022-08-19T09:22:17;6.35;;;5.60;;
17347;SDS011;8791;50.876;4.342;2022-08-19T09:24:47;6.45;;;4.72;;
17347;SDS011;8791;50.876;4.342;2022-08-19T09:27:15;6.53;;;4.97;;
17347;SDS011;8791;50.876;4.342;2022-08-19T09:29:42;8.95;;;5.10;;
17347;SDS011;8791;50.876;4.342;2022-08-19T09:32:10;8.40;;;4.93;;
17347;SDS011;8791;50.876;4.342;2022-08-19T09:34:37;7.65;;;4.90;;
17347;SDS011;8791;50.876;4.342;2022-08-19T09:37:04;6.70;;;5.20;;
17347;SDS011;8791;50.876;4.342;2022-08-19T09:39:34;185.13;;;13.68;;
17347;SDS011;8791;50.876;4.342;2022-08-19T09:42:02;300.30;;;24.83;;
17347;SDS011;8791;50.876;4.342;2022-08-19T09:44:29;13.15;;;5.28;;
17347;SDS011;8791;50.876;4.342;2022-08-19T09:46:58;6.65;;;5.22;;
17347;SDS011;8791;50.876;4.342;2022-08-19T09:49:25;10.07;;;5.43;;
17347;SDS011;8791;50.876;4.342;2022-08-19T09:51:52;9.18;;;5.35;;
17347;SDS011;8791;50.876;4.342;2022-08-19T09:54:21;15.48;;;5.20;;
17347;SDS011;8791;50.876;4.342;2022-08-19T09:56:48;5.47;;;4.50;;
17347;SDS011;8791;50.876;4.342;2022-08-19T09:59:16;6.03;;;4.43;;
17347;SDS011;8791;50.876;4.342;2022-08-19T10:01:43;10.45;;;5.10;;
17347;SDS011;8791;50.876;4.342;2022-08-19T10:04:10;4.35;;;3.90;;
17347;SDS011;8791;50.876;4.342;2022-08-19T10:06:38;8.77;;;4.40;;
17347;SDS011;8791;50.876;4.342;2022-08-19T10:09:07;4.63;;;4.22;;
17347;SDS011;8791;50.876;4.342;2022-08-19T10:11:36;5.30;;;4.10;;
17347;SDS011;8791;50.876;4.342;2022-08-19T10:14:06;5.78;;;4.07;;
17347;SDS011;8791;50.876;4.342;2022-08-19T10:16:35;4.78;;;4.28;;
17347;SDS011;8791;50.876;4.342;2022-08-19T10:19:04;5.07;;;4.03;;
17347;SDS011;8791;50.876;4.342;2022-08-19T10:21:32;7.32;;;4.50;;
17347;SDS011;8791;50.876;4.342;2022-08-19T10:24:00;6.72;;;4.32;;
17347;SDS011;8791;50.876;4.342;2022-08-19T10:26:31;6.35;;;4.55;;
17347;SDS011;8791;50.876;4.342;2022-08-19T10:29:03;5.28;;;4.55;;
17347;SDS011;8791;50.876;4.342;2022-08-19T10:31:31;6.30;;;5.13;;
17347;SDS011;8791;50.876;4.342;2022-08-19T10:34:01;6.07;;;4.90;;
17347;SDS011;8791;50.876;4.342;2022-08-19T10:36:29;7.22;;;4.13;;
17347;SDS011;8791;50.876;4.342;2022-08-19T10:38:58;5.60;;;4.93;;
17347;SDS011;8791;50.876;4.342;2022-08-19T10:41:28;5.20;;;4.70;;
17347;SDS011;8791;50.876;4.342;2022-08-19T10:43:56;8.02;;;5.60;;
17347;SDS011;8791;50.876;4.342;2022-08-19T10:46:25;7.90;;;5.28;;
17347;SDS011;8791;50.876;4.342;2022-08-19T10:48:53;12.13;;;5.50;;
17347;SDS011;8791;50.876;4.342;2022-08-19T10:51:21;7.97;;;5.55;;
17347;SDS011;8791;50.876;4.342;2022-08-19T10:54:06;5.38;;;4.88;;
17347;SDS011;8791;50.876;4.342;2022-08-19T10:56:33;6.30;;;5.00;;
17347;SDS011;8791;50.876;4.342;2022-08-19T10:59:19;6.00;;;5.40;;
17347;SDS011;8791;50.876;4.342;2022-08-19T11:01:47;11.13;;;5.93;;
17347;SDS011;8791;50.876;4.342;2022-08-19T11:04:15;5.47;;;4.82;;
17347;SDS011;8791;50.876;4.342;2022-08-19T11:06:44;5.25;;;4.47;;
17347;SDS011;8791;50.876;4.342;2022-08-19T11:09:12;7.38;;;4.88;;
17347;SDS011;8791;50.876;4.342;2022-08-19T11:11:40;9.48;;;4.88;;
17347;SDS011;8791;50.876;4.342;2022-08-19T11:14:07;7.72;;;4.88;;
17347;SDS011;8791;50.876;4.342;2022-08-19T11:16:35;8.20;;;4.68;;
17347;SDS011;8791;50.876;4.342;2022-08-19T11:19:04;5.57;;;4.10;;
17347;SDS011;8791;50.876;4.342;2022-08-19T11:21:32;5.10;;;4.40;;
17347;SDS011;8791;50.876;4.342;2022-08-19T11:24:03;4.35;;;3.95;;
17347;SDS011;8791;50.876;4.342;2022-08-19T11:26:32;5.25;;;3.88;;
17347;SDS011;8791;50.876;4.342;2022-08-19T11:29:00;4.50;;;3.70;;
17347;SDS011;8791;50.876;4.342;2022-08-19T11:31:30;5.75;;;3.75;;
17347;SDS011;8791;50.876;4.342;2022-08-19T11:33:58;6.20;;;5.32;;
17347;SDS011;8791;50.876;4.342;2022-08-19T11:36:26;9.60;;;6.50;;
17347;SDS011;8791;50.876;4.342;2022-08-19T11:38:54;7.97;;;7.22;;
17347;SDS011;8791;50.876;4.342;2022-08-19T11:41:23;9.25;;;7.07;;
17347;SDS011;8791;50.876;4.342;2022-08-19T11:43:50;10.05;;;8.55;;
17347;SDS011;8791;50.876;4.342;2022-08-19T11:46:19;9.50;;;8.23;;
17347;SDS011;8791;50.876;4.342;2022-08-19T11:48:47;9.02;;;8.20;;
17347;SDS011;8791;50.876;4.342;2022-08-19T11:51:16;8.02;;;7.22;;
17347;SDS011;8791;50.876;4.342;2022-08-19T11:53:45;9.30;;;7.97;;
17347;SDS011;8791;50.876;4.342;2022-08-19T11:56:12;9.90;;;8.00;;
17347;SDS011;8791;50.876;4.342;2022-08-19T11:58:40;7.85;;;7.05;;
17347;SDS011;8791;50.876;4.342;2022-08-19T12:01:08;8.60;;;7.40;;
17347;SDS011;8791;50.876;4.342;2022-08-19T12:03:37;8.82;;;7.00;;
17347;SDS011;8791;50.876;4.342;2022-08-19T12:06:05;6.65;;;6.15;;
17347;SDS011;8791;50.876;4.342;2022-08-19T12:08:33;6.82;;;6.20;;
17347;SDS011;8791;50.876;4.342;2022-08-19T12:11:00;8.88;;;6.40;;
17347;SDS011;8791;50.876;4.342;2022-08-19T12:13:27;6.45;;;5.40;;
17347;SDS011;8791;50.876;4.342;2022-08-19T12:15:56;7.65;;;5.65;;
17347;SDS011;8791;50.876;4.342;2022-08-19T12:18:24;11.20;;;5.65;;
17347;SDS011;8791;50.876;4.342;2022-08-19T12:20:52;8.77;;;5.47;;
17347;SDS011;8791;50.876;4.342;2022-08-19T12:23:21;8.20;;;4.20;;
17347;SDS011;8791;50.876;4.342;2022-08-19T12:25:48;6.55;;;4.25;;
17347;SDS011;8791;50.876;4.342;2022-08-19T12:28:16;6.28;;;4.63;;
17347;SDS011;8791;50.876;4.342;2022-08-19T12:30:43;5.50;;;4.32;;
17347;SDS011;8791;50.876;4.342;2022-08-19T12:33:12;5.05;;;4.55;;
17347;SDS011;8791;50.876;4.342;2022-08-19T12:35:40;5.63;;;4.15;;
17347;SDS011;8791;50.876;4.342;2022-08-19T12:38:07;5.57;;;3.88;;
17347;SDS011;8791;50.876;4.342;2022-08-19T12:40:34;7.00;;;3.90;;
17347;SDS011;8791;50.876;4.342;2022-08-19T12:43:01;4.95;;;2.88;;
17347;SDS011;8791;50.876;4.342;2022-08-19T12:45:28;4.60;;;3.42;;
17347;SDS011;8791;50.876;4.342;2022-08-19T12:47:55;5.57;;;2.90;;
17347;SDS011;8791;50.876;4.342;2022-08-19T12:50:23;3.50;;;3.13;;
17347;SDS011;8791;50.876;4.342;2022-08-19T12:52:50;7.88;;;2.83;;
17347;SDS011;8791;50.876;4.342;2022-08-19T12:55:17;4.95;;;3.40;;
17347;SDS011;8791;50.876;4.342;2022-08-19T12:57:45;6.95;;;2.55;;
17347;SDS011;8791;50.876;4.342;2022-08-19T13:00:14;4.82;;;2.65;;
17347;SDS011;8791;50.876;4.342;2022-08-19T13:02:44;3.75;;;2.70;;
17347;SDS011;8791;50.876;4.342;2022-08-19T13:05:15;2.92;;;2.72;;
17347;SDS011;8791;50.876;4.342;2022-08-19T13:07:46;2.22;;;2.13;;
17347;SDS011;8791;50.876;4.342;2022-08-19T13:10:14;4.25;;;2.30;;
17347;SDS011;8791;50.876;4.342;2022-08-19T13:12:42;4.22;;;2.95;;
17347;SDS011;8791;50.876;4.342;2022-08-19T13:15:10;2.22;;;2.03;;
17347;SDS011;8791;50.876;4.342;2022-08-19T13:17:38;7.85;;;2.78;;
17347;SDS011;8791;50.876;4.342;2022-08-19T13:20:06;2.70;;;2.38;;
17347;SDS011;8791;50.876;4.342;2022-08-19T13:22:34;4.18;;;2.33;;
17347;SDS011;8791;50.876;4.342;2022-08-19T13:25:02;2.58;;;2.13;;
17347;SDS011;8791;50.876;4.342;2022-08-19T13:27:30;5.05;;;2.42;;
17347;SDS011;8791;50.876;4.342;2022-08-19T13:29:57;4.50;;;2.38;;
17347;SDS011;8791;50.876;4.342;2022-08-19T13:32:41;2.60;;;2.38;;
17347;SDS011;8791;50.876;4.342;2022-08-19T13:35:25;4.35;;;1.50;;
17347;SDS011;8791;50.876;4.342;2022-08-19T13:37:52;3.78;;;2.22;;
17347;SDS011;8791;50.876;4.342;2022-08-19T13:40:22;5.22;;;2.10;;
17347;SDS011;8791;50.876;4.342;2022-08-19T13:42:53;5.65;;;2.20;;
17347;SDS011;8791;50.876;4.342;2022-08-19T13:45:21;4.40;;;1.60;;
17347;SDS011;8791;50.876;4.342;2022-08-19T13:47:50;4.10;;;1.50;;
17347;SDS011;8791;50.876;4.342;2022-08-19T13:50:20;1.90;;;1.70;;
17347;SDS011;8791;50.876;4.342;2022-08-19T13:52:49;4.95;;;2.40;;
17347;SDS011;8791;50.876;4.342;2022-08-19T13:55:16;4.90;;;2.20;;
17347;SDS011;8791;50.876;4.342;2022-08-19T13:57:45;4.38;;;1.75;;
17347;SDS011;8791;50.876;4.342;2022-08-19T14:00:13;2.55;;;2.00;;
17347;SDS011;8791;50.876;4.342;2022-08-19T14:02:43;3.05;;;2.28;;
17347;SDS011;8791;50.876;4.342;2022-08-19T14:05:11;4.95;;;2.40;;
17347;SDS011;8791;50.876;4.342;2022-08-19T14:07:40;5.25;;;2.50;;
17347;SDS011;8791;50.876;4.342;2022-08-19T14:10:09;2.83;;;2.60;;
17347;SDS011;8791;50.876;4.342;2022-08-19T14:12:38;4.68;;;2.90;;
17347;SDS011;8791;50.876;4.342;2022-08-19T14:15:08;4.50;;;2.65;;
17347;SDS011;8791;50.876;4.342;2022-08-19T14:17:37;4.35;;;2.45;;
17347;SDS011;8791;50.876;4.342;2022-08-19T14:20:05;9.85;;;2.40;;
17347;SDS011;8791;50.876;4.342;2022-08-19T14:22:34;5.88;;;3.03;;
17347;SDS011;8791;50.876;4.342;2022-08-19T14:25:01;2.95;;;2.75;;
17347;SDS011;8791;50.876;4.342;2022-08-19T14:27:29;3.15;;;2.78;;
17347;SDS011;8791;50.876;4.342;2022-08-19T14:29:59;3.75;;;2.58;;
17347;SDS011;8791;50.876;4.342;2022-08-19T14:32:27;3.95;;;2.30;;
17347;SDS011;8791;50.876;4.342;2022-08-19T14:34:54;3.75;;;2.40;;
17347;SDS011;8791;50.876;4.342;2022-08-19T14:37:20;3.13;;;2.22;;
17347;SDS011;8791;50.876;4.342;2022-08-19T14:39:47;4.97;;;2.75;;
17347;SDS011;8791;50.876;4.342;2022-08-19T14:42:14;3.53;;;1.85;;
17347;SDS011;8791;50.876;4.342;2022-08-19T14:44:41;2.85;;;2.20;;
17347;SDS011;8791;50.876;4.342;2022-08-19T14:47:09;2.30;;;2.10;;
17347;SDS011;8791;50.876;4.342;2022-08-19T14:49:37;2.47;;;2.28;;
17347;SDS011;8791;50.876;4.342;2022-08-19T14:52:04;2.90;;;2.40;;
17347;SDS011;8791;50.876;4.342;2022-08-19T14:54:32;3.25;;;2.60;;
17347;SDS011;8791;50.876;4.342;2022-08-19T14:56:59;2.47;;;2.22;;
17347;SDS011;8791;50.876;4.342;2022-08-19T14:59:25;3.45;;;2.53;;
17347;SDS011;8791;50.876;4.342;2022-08-19T15:01:52;5.32;;;2.58;;
17347;SDS011;8791;50.876;4.342;2022-08-19T15:04:19;2.08;;;1.88;;
17347;SDS011;8791;50.876;4.342;2022-08-19T15:06:47;2.28;;;1.60;;